sensor_id;sensor_type;location;lat;lon;timestamp;P1;durP1;ratioP1;P2;durP2;ratioP2
18651;SDS011;9455;54.302;10.124;2023-07-22T00:02:11;7.10;;;3.70;;
18651;SDS011;9455;54.302;10.124;2023-07-22T00:04:38;5.80;;;3.73;;
18651;SDS011;9455;54.302;10.124;2023-07-22T00:07:05;10.40;;;4.60;;
18651;SDS011;9455;54.302;10.124;2023-07-22T00:09:32;5.17;;;3.83;;
18651;SDS011;9455;54.302;10.124;2023-07-22T00:11:59;4.63;;;3.70;;
18651;SDS011;9455;54.302;10.124;2023-07-22T00:14:27;6.53;;;4.33;;
18651;SDS011;9455;54.302;10.124;2023-07-22T00:16:53;5.67;;;3.70;;
18651;SDS011;9455;54.302;10.124;2023-07-22T00:19:20;12.00;;;5.17;;
18651;SDS011;9455;54.302;10.124;2023-07-22T00:21:46;8.67;;;4.07;;
18651;SDS011;9455;54.302;10.124;2023-07-22T00:24:13;6.90;;;4.30;;
18651;SDS011;9455;54.302;10.124;2023-07-22T00:26:40;5.20;;;4.20;;
18651;SDS011;9455;54.302;10.124;2023-07-22T00:29:07;4.97;;;3.23;;
18651;SDS011;9455;54.302;10.124;2023-07-22T00:31:35;8.63;;;4.13;;
18651;SDS011;9455;54.302;10.124;2023-07-22T00:34:02;3.17;;;2.87;;
18651;SDS011;9455;54.302;10.124;2023-07-22T00:36:28;6.00;;;4.40;;
18651;SDS011;9455;54.302;10.124;2023-07-22T00:38:55;6.13;;;4.00;;
18651;SDS011;9455;54.302;10.124;2023-07-22T00:41:22;7.17;;;3.50;;
18651;SDS011;9455;54.302;10.124;2023-07-22T00:43:48;8.83;;;4.60;;
18651;SDS011;9455;54.302;10.124;2023-07-22T00:46:15;6.17;;;4.00;;
18651;SDS011;9455;54.302;10.124;2023-07-22T00:48:43;5.87;;;3.90;;
18651;SDS011;9455;54.302;10.124;2023-07-22T00:51:09;5.17;;;4.00;;
18651;SDS011;9455;54.302;10.124;2023-07-22T00:53:37;6.50;;;3.67;;
18651;SDS011;9455;54.302;10.124;2023-07-22T00:56:04;3.33;;;3.03;;
18651;SDS011;9455;54.302;10.124;2023-07-22T00:58:31;5.67;;;3.80;;
18651;SDS011;9455;54.302;10.124;2023-07-22T01:00:58;4.40;;;3.50;;
18651;SDS011;9455;54.302;10.124;2023-07-22T01:03:24;3.80;;;2.83;;
18651;SDS011;9455;54.302;10.124;2023-07-22T01:05:53;4.17;;;3.40;;
18651;SDS011;9455;54.302;10.124;2023-07-22T01:08:20;5.07;;;2.97;;
18651;SDS011;9455;54.302;10.124;2023-07-22T01:10:47;3.43;;;3.07;;
18651;SDS011;9455;54.302;10.124;2023-07-22T01:13:14;3.90;;;3.40;;
18651;SDS011;9455;54.302;10.124;2023-07-22T01:15:40;6.23;;;3.30;;
18651;SDS011;9455;54.302;10.124;2023-07-22T01:18:07;3.20;;;2.73;;
18651;SDS011;9455;54.302;10.124;2023-07-22T01:20:34;4.30;;;3.10;;
18651;SDS011;9455;54.302;10.124;2023-07-22T01:23:03;6.60;;;3.20;;
18651;SDS011;9455;54.302;10.124;2023-07-22T01:25:31;5.87;;;3.20;;
18651;SDS011;9455;54.302;10.124;2023-07-22T01:27:58;4.43;;;2.93;;
18651;SDS011;9455;54.302;10.124;2023-07-22T01:30:25;7.50;;;2.50;;
18651;SDS011;9455;54.302;10.124;2023-07-22T01:32:52;4.23;;;2.80;;
18651;SDS011;9455;54.302;10.124;2023-07-22T01:35:19;4.83;;;2.60;;
18651;SDS011;9455;54.302;10.124;2023-07-22T01:37:45;6.30;;;2.90;;
18651;SDS011;9455;54.302;10.124;2023-07-22T01:40:13;4.37;;;2.20;;
18651;SDS011;9455;54.302;10.124;2023-07-22T01:42:40;2.70;;;2.50;;
18651;SDS011;9455;54.302;10.124;2023-07-22T01:45:08;3.67;;;2.40;;
18651;SDS011;9455;54.302;10.124;2023-07-22T01:47:35;3.03;;;2.43;;
18651;SDS011;9455;54.302;10.124;2023-07-22T01:50:03;4.00;;;2.60;;
18651;SDS011;9455;54.302;10.124;2023-07-22T01:52:31;3.97;;;2.87;;
18651;SDS011;9455;54.302;10.124;2023-07-22T01:54:58;5.20;;;3.17;;
18651;SDS011;9455;54.302;10.124;2023-07-22T01:57:26;5.40;;;2.50;;
18651;SDS011;9455;54.302;10.124;2023-07-22T01:59:52;3.27;;;2.73;;
18651;SDS011;9455;54.302;10.124;2023-07-22T02:02:19;5.20;;;2.23;;
18651;SDS011;9455;54.302;10.124;2023-07-22T02:04:45;6.63;;;2.47;;
18651;SDS011;9455;54.302;10.124;2023-07-22T02:07:12;5.67;;;2.60;;
18651;SDS011;9455;54.302;10.124;2023-07-22T02:09:39;7.33;;;2.57;;
18651;SDS011;9455;54.302;10.124;2023-07-22T02:12:06;2.70;;;2.27;;
18651;SDS011;9455;54.302;10.124;2023-07-22T02:14:35;7.33;;;2.60;;
18651;SDS011;9455;54.302;10.124;2023-07-22T02:17:02;5.20;;;2.93;;
18651;SDS011;9455;54.302;10.124;2023-07-22T02:19:28;3.70;;;2.83;;
18651;SDS011;9455;54.302;10.124;2023-07-22T02:21:55;4.27;;;2.43;;
18651;SDS011;9455;54.302;10.124;2023-07-22T02:24:22;3.30;;;1.80;;
18651;SDS011;9455;54.302;10.124;2023-07-22T02:26:49;2.57;;;2.37;;
18651;SDS011;9455;54.302;10.124;2023-07-22T02:29:16;6.67;;;2.67;;
18651;SDS011;9455;54.302;10.124;2023-07-22T02:31:46;7.93;;;2.87;;
18651;SDS011;9455;54.302;10.124;2023-07-22T02:34:12;4.90;;;2.40;;
18651;SDS011;9455;54.302;10.124;2023-07-22T02:36:39;4.50;;;2.47;;
18651;SDS011;9455;54.302;10.124;2023-07-22T02:39:05;3.77;;;2.10;;
18651;SDS011;9455;54.302;10.124;2023-07-22T02:41:34;1.73;;;1.63;;
18651;SDS011;9455;54.302;10.124;2023-07-22T02:44:02;3.03;;;2.50;;
18651;SDS011;9455;54.302;10.124;2023-07-22T02:46:29;3.03;;;2.20;;
18651;SDS011;9455;54.302;10.124;2023-07-22T02:48:57;4.93;;;2.50;;
18651;SDS011;9455;54.302;10.124;2023-07-22T02:51:24;3.90;;;1.77;;
18651;SDS011;9455;54.302;10.124;2023-07-22T02:53:51;4.33;;;2.30;;
18651;SDS011;9455;54.302;10.124;2023-07-22T02:56:17;4.97;;;2.30;;
18651;SDS011;9455;54.302;10.124;2023-07-22T02:58:44;2.93;;;2.20;;
18651;SDS011;9455;54.302;10.124;2023-07-22T03:01:09;3.80;;;2.13;;
18651;SDS011;9455;54.302;10.124;2023-07-22T03:03:36;5.03;;;2.10;;
18651;SDS011;9455;54.302;10.124;2023-07-22T03:06:06;2.80;;;2.17;;
18651;SDS011;9455;54.302;10.124;2023-07-22T03:08:34;4.47;;;2.43;;
18651;SDS011;9455;54.302;10.124;2023-07-22T03:11:01;8.97;;;2.13;;
18651;SDS011;9455;54.302;10.124;2023-07-22T03:13:29;8.57;;;2.00;;
18651;SDS011;9455;54.302;10.124;2023-07-22T03:15:55;1.80;;;1.70;;
18651;SDS011;9455;54.302;10.124;2023-07-22T03:18:22;5.13;;;1.90;;
18651;SDS011;9455;54.302;10.124;2023-07-22T03:20:48;2.80;;;2.53;;
18651;SDS011;9455;54.302;10.124;2023-07-22T03:23:18;1.90;;;1.70;;
18651;SDS011;9455;54.302;10.124;2023-07-22T03:25:45;4.07;;;1.90;;
18651;SDS011;9455;54.302;10.124;2023-07-22T03:28:13;5.97;;;2.03;;
18651;SDS011;9455;54.302;10.124;2023-07-22T03:30:40;2.70;;;2.00;;
18651;SDS011;9455;54.302;10.124;2023-07-22T03:33:06;4.33;;;2.10;;
18651;SDS011;9455;54.302;10.124;2023-07-22T03:35:33;2.00;;;1.80;;
18651;SDS011;9455;54.302;10.124;2023-07-22T03:38:00;3.33;;;1.90;;
18651;SDS011;9455;54.302;10.124;2023-07-22T03:40:28;3.60;;;1.90;;
18651;SDS011;9455;54.302;10.124;2023-07-22T03:42:56;3.87;;;1.50;;
18651;SDS011;9455;54.302;10.124;2023-07-22T03:45:23;3.33;;;1.50;;
18651;SDS011;9455;54.302;10.124;2023-07-22T03:47:51;2.70;;;1.90;;
18651;SDS011;9455;54.302;10.124;2023-07-22T03:50:19;2.07;;;1.87;;
18651;SDS011;9455;54.302;10.124;2023-07-22T03:52:45;1.60;;;1.50;;
18651;SDS011;9455;54.302;10.124;2023-07-22T03:55:12;1.60;;;1.57;;
18651;SDS011;9455;54.302;10.124;2023-07-22T03:57:40;1.70;;;1.60;;
18651;SDS011;9455;54.302;10.124;2023-07-22T04:00:07;3.27;;;1.80;;
18651;SDS011;9455;54.302;10.124;2023-07-22T04:02:35;2.03;;;1.93;;
18651;SDS011;9455;54.302;10.124;2023-07-22T04:05:02;4.57;;;2.30;;
18651;SDS011;9455;54.302;10.124;2023-07-22T04:07:29;4.90;;;1.80;;
18651;SDS011;9455;54.302;10.124;2023-07-22T04:09:56;1.60;;;1.50;;
18651;SDS011;9455;54.302;10.124;2023-07-22T04:12:22;6.00;;;1.93;;
18651;SDS011;9455;54.302;10.124;2023-07-22T04:14:50;1.63;;;1.57;;
18651;SDS011;9455;54.302;10.124;2023-07-22T04:17:17;2.23;;;1.83;;
18651;SDS011;9455;54.302;10.124;2023-07-22T04:19:43;2.10;;;1.50;;
18651;SDS011;9455;54.302;10.124;2023-07-22T04:22:10;4.70;;;1.97;;
18651;SDS011;9455;54.302;10.124;2023-07-22T04:24:37;2.13;;;1.77;;
18651;SDS011;9455;54.302;10.124;2023-07-22T04:27:03;4.07;;;1.53;;
18651;SDS011;9455;54.302;10.124;2023-07-22T04:29:30;1.47;;;1.37;;
18651;SDS011;9455;54.302;10.124;2023-07-22T04:31:59;2.00;;;1.90;;
18651;SDS011;9455;54.302;10.124;2023-07-22T04:34:28;2.00;;;1.70;;
18651;SDS011;9455;54.302;10.124;2023-07-22T04:36:55;4.50;;;1.50;;
18651;SDS011;9455;54.302;10.124;2023-07-22T04:39:22;1.40;;;1.40;;
18651;SDS011;9455;54.302;10.124;2023-07-22T04:41:49;2.47;;;1.57;;
18651;SDS011;9455;54.302;10.124;2023-07-22T04:44:16;4.10;;;1.90;;
18651;SDS011;9455;54.302;10.124;2023-07-22T04:46:43;4.77;;;2.07;;
18651;SDS011;9455;54.302;10.124;2023-07-22T04:49:10;2.30;;;2.00;;
18651;SDS011;9455;54.302;10.124;2023-07-22T04:51:37;5.30;;;2.00;;
18651;SDS011;9455;54.302;10.124;2023-07-22T04:54:04;1.93;;;1.77;;
18651;SDS011;9455;54.302;10.124;2023-07-22T04:56:30;1.73;;;1.63;;
18651;SDS011;9455;54.302;10.124;2023-07-22T04:58:57;1.83;;;1.73;;
18651;SDS011;9455;54.302;10.124;2023-07-22T05:01:23;5.37;;;1.67;;
18651;SDS011;9455;54.302;10.124;2023-07-22T05:03:50;2.23;;;1.10;;
18651;SDS011;9455;54.302;10.124;2023-07-22T05:06:21;3.33;;;1.73;;
18651;SDS011;9455;54.302;10.124;2023-07-22T05:08:49;2.30;;;2.10;;
18651;SDS011;9455;54.302;10.124;2023-07-22T05:11:15;1.63;;;1.53;;
18651;SDS011;9455;54.302;10.124;2023-07-22T05:13:42;3.47;;;1.90;;
18651;SDS011;9455;54.302;10.124;2023-07-22T05:16:08;2.93;;;1.90;;
18651;SDS011;9455;54.302;10.124;2023-07-22T05:18:35;2.20;;;1.77;;
18651;SDS011;9455;54.302;10.124;2023-07-22T05:21:03;4.07;;;2.10;;
18651;SDS011;9455;54.302;10.124;2023-07-22T05:23:31;1.50;;;1.40;;
18651;SDS011;9455;54.302;10.124;2023-07-22T05:25:57;1.40;;;1.40;;
18651;SDS011;9455;54.302;10.124;2023-07-22T05:28:24;2.63;;;1.97;;
18651;SDS011;9455;54.302;10.124;2023-07-22T05:30:50;2.23;;;1.77;;
18651;SDS011;9455;54.302;10.124;2023-07-22T05:33:17;3.90;;;1.10;;
18651;SDS011;9455;54.302;10.124;2023-07-22T05:35:43;3.20;;;1.80;;
18651;SDS011;9455;54.302;10.124;2023-07-22T05:38:10;3.37;;;1.57;;
18651;SDS011;9455;54.302;10.124;2023-07-22T05:40:38;2.17;;;1.37;;
18651;SDS011;9455;54.302;10.124;2023-07-22T05:43:04;1.77;;;1.67;;
18651;SDS011;9455;54.302;10.124;2023-07-22T05:45:31;1.80;;;1.70;;
18651;SDS011;9455;54.302;10.124;2023-07-22T05:47:57;5.23;;;1.53;;
18651;SDS011;9455;54.302;10.124;2023-07-22T05:50:24;1.80;;;1.70;;
18651;SDS011;9455;54.302;10.124;2023-07-22T05:52:50;1.37;;;1.37;;
18651;SDS011;9455;54.302;10.124;2023-07-22T05:55:17;2.57;;;1.17;;
18651;SDS011;9455;54.302;10.124;2023-07-22T05:57:45;1.60;;;1.50;;
18651;SDS011;9455;54.302;10.124;2023-07-22T06:00:12;4.43;;;1.37;;
18651;SDS011;9455;54.302;10.124;2023-07-22T06:02:39;4.03;;;1.63;;
18651;SDS011;9455;54.302;10.124;2023-07-22T06:05:06;1.70;;;1.50;;
18651;SDS011;9455;54.302;10.124;2023-07-22T06:07:33;1.10;;;1.00;;
18651;SDS011;9455;54.302;10.124;2023-07-22T06:10:00;0.97;;;0.97;;
18651;SDS011;9455;54.302;10.124;2023-07-22T06:12:27;1.30;;;1.20;;
18651;SDS011;9455;54.302;10.124;2023-07-22T06:14:55;1.23;;;1.07;;
18651;SDS011;9455;54.302;10.124;2023-07-22T06:17:21;0.97;;;0.97;;
18651;SDS011;9455;54.302;10.124;2023-07-22T06:19:48;5.77;;;1.10;;
18651;SDS011;9455;54.302;10.124;2023-07-22T06:22:14;4.73;;;1.37;;
18651;SDS011;9455;54.302;10.124;2023-07-22T06:24:41;4.07;;;0.87;;
18651;SDS011;9455;54.302;10.124;2023-07-22T06:27:07;1.17;;;1.07;;
18651;SDS011;9455;54.302;10.124;2023-07-22T06:29:34;1.10;;;1.10;;
18651;SDS011;9455;54.302;10.124;2023-07-22T06:32:02;5.03;;;1.30;;
18651;SDS011;9455;54.302;10.124;2023-07-22T06:34:29;0.90;;;0.90;;
18651;SDS011;9455;54.302;10.124;2023-07-22T06:36:55;1.50;;;0.90;;
18651;SDS011;9455;54.302;10.124;2023-07-22T06:39:22;2.13;;;1.00;;
18651;SDS011;9455;54.302;10.124;2023-07-22T06:41:48;3.93;;;0.90;;
18651;SDS011;9455;54.302;10.124;2023-07-22T06:44:15;0.80;;;0.80;;
18651;SDS011;9455;54.302;10.124;2023-07-22T06:46:41;1.80;;;0.80;;
18651;SDS011;9455;54.302;10.124;2023-07-22T06:49:11;2.43;;;1.07;;
18651;SDS011;9455;54.302;10.124;2023-07-22T06:51:37;2.33;;;1.00;;
18651;SDS011;9455;54.302;10.124;2023-07-22T06:54:04;2.20;;;0.77;;
18651;SDS011;9455;54.302;10.124;2023-07-22T06:56:30;1.77;;;1.10;;
18651;SDS011;9455;54.302;10.124;2023-07-22T06:58:57;0.70;;;0.70;;
18651;SDS011;9455;54.302;10.124;2023-07-22T07:01:24;2.97;;;1.10;;
18651;SDS011;9455;54.302;10.124;2023-07-22T07:03:50;1.33;;;0.83;;
18651;SDS011;9455;54.302;10.124;2023-07-22T07:06:18;0.90;;;0.90;;
18651;SDS011;9455;54.302;10.124;2023-07-22T07:08:45;0.63;;;0.63;;
18651;SDS011;9455;54.302;10.124;2023-07-22T07:11:11;1.20;;;0.80;;
18651;SDS011;9455;54.302;10.124;2023-07-22T07:13:38;0.90;;;0.90;;
18651;SDS011;9455;54.302;10.124;2023-07-22T07:16:20;0.80;;;0.80;;
18651;SDS011;9455;54.302;10.124;2023-07-22T07:18:48;1.30;;;1.17;;
18651;SDS011;9455;54.302;10.124;2023-07-22T07:21:15;0.50;;;0.50;;
18651;SDS011;9455;54.302;10.124;2023-07-22T07:23:43;3.97;;;1.07;;
18651;SDS011;9455;54.302;10.124;2023-07-22T07:26:09;5.80;;;1.17;;
18651;SDS011;9455;54.302;10.124;2023-07-22T07:28:36;3.83;;;0.93;;
18651;SDS011;9455;54.302;10.124;2023-07-22T07:31:02;1.27;;;1.00;;
18651;SDS011;9455;54.302;10.124;2023-07-22T07:33:29;5.10;;;1.13;;
18651;SDS011;9455;54.302;10.124;2023-07-22T07:35:55;1.97;;;1.10;;
18651;SDS011;9455;54.302;10.124;2023-07-22T07:38:22;1.57;;;0.90;;
18651;SDS011;9455;54.302;10.124;2023-07-22T07:40:52;1.00;;;0.90;;
18651;SDS011;9455;54.302;10.124;2023-07-22T07:43:19;0.93;;;0.93;;
18651;SDS011;9455;54.302;10.124;2023-07-22T07:45:45;0.60;;;0.60;;
18651;SDS011;9455;54.302;10.124;2023-07-22T07:48:12;3.80;;;1.43;;
18651;SDS011;9455;54.302;10.124;2023-07-22T07:50:38;0.33;;;0.33;;
18651;SDS011;9455;54.302;10.124;2023-07-22T07:53:05;2.57;;;0.73;;
18651;SDS011;9455;54.302;10.124;2023-07-22T07:55:32;5.10;;;0.60;;
18651;SDS011;9455;54.302;10.124;2023-07-22T07:58:00;0.60;;;0.60;;
18651;SDS011;9455;54.302;10.124;2023-07-22T08:00:26;1.57;;;0.80;;
18651;SDS011;9455;54.302;10.124;2023-07-22T08:02:53;0.47;;;0.47;;
18651;SDS011;9455;54.302;10.124;2023-07-22T08:05:20;0.70;;;0.70;;
18651;SDS011;9455;54.302;10.124;2023-07-22T08:07:46;1.80;;;0.90;;
18651;SDS011;9455;54.302;10.124;2023-07-22T08:10:13;1.20;;;0.73;;
18651;SDS011;9455;54.302;10.124;2023-07-22T08:12:39;2.70;;;0.60;;
18651;SDS011;9455;54.302;10.124;2023-07-22T08:15:08;0.60;;;0.60;;
18651;SDS011;9455;54.302;10.124;2023-07-22T08:17:35;0.93;;;0.80;;
18651;SDS011;9455;54.302;10.124;2023-07-22T08:20:01;2.30;;;1.00;;
18651;SDS011;9455;54.302;10.124;2023-07-22T08:22:30;0.87;;;0.50;;
18651;SDS011;9455;54.302;10.124;2023-07-22T08:24:57;1.13;;;0.70;;
18651;SDS011;9455;54.302;10.124;2023-07-22T08:27:24;0.47;;;0.47;;
18651;SDS011;9455;54.302;10.124;2023-07-22T08:29:50;0.70;;;0.70;;
18651;SDS011;9455;54.302;10.124;2023-07-22T08:32:18;1.03;;;0.50;;
18651;SDS011;9455;54.302;10.124;2023-07-22T08:34:45;1.17;;;0.70;;
18651;SDS011;9455;54.302;10.124;2023-07-22T08:37:11;1.03;;;0.63;;
18651;SDS011;9455;54.302;10.124;2023-07-22T08:39:38;0.50;;;0.50;;
18651;SDS011;9455;54.302;10.124;2023-07-22T08:42:05;0.70;;;0.70;;
18651;SDS011;9455;54.302;10.124;2023-07-22T08:44:33;0.93;;;0.60;;
18651;SDS011;9455;54.302;10.124;2023-07-22T08:47:09;0.73;;;0.73;;
18651;SDS011;9455;54.302;10.124;2023-07-22T08:49:40;0.97;;;0.97;;
18651;SDS011;9455;54.302;10.124;2023-07-22T08:52:10;0.50;;;0.50;;
18651;SDS011;9455;54.302;10.124;2023-07-22T08:54:39;0.77;;;0.60;;
18651;SDS011;9455;54.302;10.124;2023-07-22T08:57:06;0.67;;;0.47;;
18651;SDS011;9455;54.302;10.124;2023-07-22T08:59:34;0.60;;;0.60;;
18651;SDS011;9455;54.302;10.124;2023-07-22T09:02:01;2.00;;;0.60;;
18651;SDS011;9455;54.302;10.124;2023-07-22T09:04:30;1.03;;;0.57;;
18651;SDS011;9455;54.302;10.124;2023-07-22T09:06:58;1.77;;;0.50;;
18651;SDS011;9455;54.302;10.124;2023-07-22T09:09:24;2.93;;;0.60;;
18651;SDS011;9455;54.302;10.124;2023-07-22T09:11:52;0.63;;;0.40;;
18651;SDS011;9455;54.302;10.124;2023-07-22T09:14:20;3.93;;;0.50;;
18651;SDS011;9455;54.302;10.124;2023-07-22T09:16:48;0.83;;;0.83;;
18651;SDS011;9455;54.302;10.124;2023-07-22T09:19:14;1.70;;;0.70;;
18651;SDS011;9455;54.302;10.124;2023-07-22T09:21:42;1.27;;;0.50;;
18651;SDS011;9455;54.302;10.124;2023-07-22T09:24:22;1.70;;;0.60;;
18651;SDS011;9455;54.302;10.124;2023-07-22T09:26:50;0.33;;;0.33;;
18651;SDS011;9455;54.302;10.124;2023-07-22T09:29:17;0.33;;;0.33;;
18651;SDS011;9455;54.302;10.124;2023-07-22T09:31:50;0.60;;;0.47;;
18651;SDS011;9455;54.302;10.124;2023-07-22T09:34:18;3.13;;;0.60;;
18651;SDS011;9455;54.302;10.124;2023-07-22T09:36:49;1.33;;;0.50;;
18651;SDS011;9455;54.302;10.124;2023-07-22T09:39:17;0.40;;;0.40;;
18651;SDS011;9455;54.302;10.124;2023-07-22T09:41:45;4.63;;;0.60;;
18651;SDS011;9455;54.302;10.124;2023-07-22T09:44:11;0.47;;;0.47;;
18651;SDS011;9455;54.302;10.124;2023-07-22T09:46:38;2.97;;;0.57;;
18651;SDS011;9455;54.302;10.124;2023-07-22T09:49:05;1.23;;;0.70;;
18651;SDS011;9455;54.302;10.124;2023-07-22T09:51:34;1.80;;;0.73;;
18651;SDS011;9455;54.302;10.124;2023-07-22T09:54:02;4.23;;;0.43;;
18651;SDS011;9455;54.302;10.124;2023-07-22T09:56:29;2.23;;;0.57;;
18651;SDS011;9455;54.302;10.124;2023-07-22T09:58:58;0.20;;;0.20;;
18651;SDS011;9455;54.302;10.124;2023-07-22T10:01:25;2.07;;;0.60;;
18651;SDS011;9455;54.302;10.124;2023-07-22T10:03:53;2.93;;;0.80;;
18651;SDS011;9455;54.302;10.124;2023-07-22T10:06:21;1.90;;;1.00;;
18651;SDS011;9455;54.302;10.124;2023-07-22T10:08:49;2.27;;;0.57;;
18651;SDS011;9455;54.302;10.124;2023-07-22T10:11:17;1.37;;;0.60;;
18651;SDS011;9455;54.302;10.124;2023-07-22T10:13:44;2.93;;;0.77;;
18651;SDS011;9455;54.302;10.124;2023-07-22T10:16:12;4.40;;;0.57;;
18651;SDS011;9455;54.302;10.124;2023-07-22T10:18:39;0.70;;;0.70;;
18651;SDS011;9455;54.302;10.124;2023-07-22T10:21:08;0.70;;;0.70;;
18651;SDS011;9455;54.302;10.124;2023-07-22T10:23:35;1.93;;;0.73;;
18651;SDS011;9455;54.302;10.124;2023-07-22T10:26:03;1.27;;;0.77;;
18651;SDS011;9455;54.302;10.124;2023-07-22T10:28:31;0.30;;;0.30;;
18651;SDS011;9455;54.302;10.124;2023-07-22T10:30:58;0.67;;;0.60;;
18651;SDS011;9455;54.302;10.124;2023-07-22T10:33:26;3.60;;;0.90;;
18651;SDS011;9455;54.302;10.124;2023-07-22T10:36:04;1.00;;;0.40;;
18651;SDS011;9455;54.302;10.124;2023-07-22T10:38:32;0.60;;;0.60;;
18651;SDS011;9455;54.302;10.124;2023-07-22T10:41:00;0.83;;;0.70;;
18651;SDS011;9455;54.302;10.124;2023-07-22T10:43:27;0.60;;;0.60;;
18651;SDS011;9455;54.302;10.124;2023-07-22T10:45:56;0.83;;;0.43;;
18651;SDS011;9455;54.302;10.124;2023-07-22T10:48:27;0.90;;;0.90;;
18651;SDS011;9455;54.302;10.124;2023-07-22T10:51:04;0.90;;;0.70;;
18651;SDS011;9455;54.302;10.124;2023-07-22T10:53:31;1.90;;;0.80;;
18651;SDS011;9455;54.302;10.124;2023-07-22T10:56:05;0.90;;;0.90;;
18651;SDS011;9455;54.302;10.124;2023-07-22T10:58:32;4.73;;;0.83;;
18651;SDS011;9455;54.302;10.124;2023-07-22T11:06:56;2.13;;;0.60;;
18651;SDS011;9455;54.302;10.124;2023-07-22T11:09:33;1.53;;;0.70;;
18651;SDS011;9455;54.302;10.124;2023-07-22T11:12:01;2.27;;;0.70;;
18651;SDS011;9455;54.302;10.124;2023-07-22T11:14:30;0.60;;;0.60;;
18651;SDS011;9455;54.302;10.124;2023-07-22T11:16:57;0.50;;;0.50;;
18651;SDS011;9455;54.302;10.124;2023-07-22T11:19:27;0.57;;;0.57;;
18651;SDS011;9455;54.302;10.124;2023-07-22T11:21:54;0.97;;;0.60;;
18651;SDS011;9455;54.302;10.124;2023-07-22T11:24:21;1.10;;;1.00;;
18651;SDS011;9455;54.302;10.124;2023-07-22T11:26:49;0.67;;;0.67;;
18651;SDS011;9455;54.302;10.124;2023-07-22T11:29:17;5.53;;;0.97;;
18651;SDS011;9455;54.302;10.124;2023-07-22T11:31:45;1.20;;;0.60;;
18651;SDS011;9455;54.302;10.124;2023-07-22T11:34:12;2.93;;;0.83;;
18651;SDS011;9455;54.302;10.124;2023-07-22T11:36:41;4.53;;;0.87;;
18651;SDS011;9455;54.302;10.124;2023-07-22T11:39:09;0.60;;;0.60;;
18651;SDS011;9455;54.302;10.124;2023-07-22T11:41:37;1.80;;;0.63;;
18651;SDS011;9455;54.302;10.124;2023-07-22T11:44:06;0.57;;;0.57;;
18651;SDS011;9455;54.302;10.124;2023-07-22T11:46:34;0.50;;;0.50;;
18651;SDS011;9455;54.302;10.124;2023-07-22T11:49:01;1.30;;;0.50;;
18651;SDS011;9455;54.302;10.124;2023-07-22T11:51:29;3.97;;;0.70;;
18651;SDS011;9455;54.302;10.124;2023-07-22T11:53:57;1.03;;;1.00;;
18651;SDS011;9455;54.302;10.124;2023-07-22T11:56:25;0.60;;;0.60;;
18651;SDS011;9455;54.302;10.124;2023-07-22T11:58:53;4.33;;;1.10;;
18651;SDS011;9455;54.302;10.124;2023-07-22T12:01:21;1.00;;;0.93;;
18651;SDS011;9455;54.302;10.124;2023-07-22T12:03:48;0.70;;;0.70;;
18651;SDS011;9455;54.302;10.124;2023-07-22T12:06:21;4.00;;;1.10;;
18651;SDS011;9455;54.302;10.124;2023-07-22T12:08:51;5.13;;;1.10;;
18651;SDS011;9455;54.302;10.124;2023-07-22T12:11:20;0.80;;;0.80;;
18651;SDS011;9455;54.302;10.124;2023-07-22T12:13:48;2.90;;;0.97;;
18651;SDS011;9455;54.302;10.124;2023-07-22T12:16:21;5.70;;;1.10;;
18651;SDS011;9455;54.302;10.124;2023-07-22T12:18:49;0.80;;;0.80;;
18651;SDS011;9455;54.302;10.124;2023-07-22T12:21:15;1.17;;;1.07;;
18651;SDS011;9455;54.302;10.124;2023-07-22T12:23:42;1.53;;;1.10;;
18651;SDS011;9455;54.302;10.124;2023-07-22T12:26:09;1.10;;;0.80;;
18651;SDS011;9455;54.302;10.124;2023-07-22T12:28:37;1.20;;;1.10;;
18651;SDS011;9455;54.302;10.124;2023-07-22T12:31:03;1.20;;;1.00;;
18651;SDS011;9455;54.302;10.124;2023-07-22T12:33:30;2.37;;;0.87;;
18651;SDS011;9455;54.302;10.124;2023-07-22T12:35:57;2.20;;;1.00;;
18651;SDS011;9455;54.302;10.124;2023-07-22T12:38:24;2.27;;;0.97;;
18651;SDS011;9455;54.302;10.124;2023-07-22T12:40:50;2.00;;;0.80;;
18651;SDS011;9455;54.302;10.124;2023-07-22T12:43:17;2.43;;;0.93;;
18651;SDS011;9455;54.302;10.124;2023-07-22T12:45:45;2.73;;;1.10;;
18651;SDS011;9455;54.302;10.124;2023-07-22T12:48:11;0.80;;;0.80;;
18651;SDS011;9455;54.302;10.124;2023-07-22T12:50:38;1.77;;;1.00;;
18651;SDS011;9455;54.302;10.124;2023-07-22T12:53:04;3.10;;;1.07;;
18651;SDS011;9455;54.302;10.124;2023-07-22T12:55:31;1.70;;;0.70;;
18651;SDS011;9455;54.302;10.124;2023-07-22T12:57:57;0.70;;;0.70;;
18651;SDS011;9455;54.302;10.124;2023-07-22T13:00:24;2.30;;;0.80;;
18651;SDS011;9455;54.302;10.124;2023-07-22T13:02:52;2.83;;;0.97;;
18651;SDS011;9455;54.302;10.124;2023-07-22T13:05:19;0.93;;;0.57;;
18651;SDS011;9455;54.302;10.124;2023-07-22T13:07:45;3.00;;;1.40;;
18651;SDS011;9455;54.302;10.124;2023-07-22T13:10:12;3.87;;;0.73;;
18651;SDS011;9455;54.302;10.124;2023-07-22T13:12:41;3.80;;;0.90;;
18651;SDS011;9455;54.302;10.124;2023-07-22T13:15:08;1.17;;;0.77;;
18651;SDS011;9455;54.302;10.124;2023-07-22T13:17:35;7.93;;;0.93;;
18651;SDS011;9455;54.302;10.124;2023-07-22T13:20:04;3.23;;;0.90;;
18651;SDS011;9455;54.302;10.124;2023-07-22T13:22:34;1.17;;;1.10;;
18651;SDS011;9455;54.302;10.124;2023-07-22T13:25:01;0.97;;;0.97;;
18651;SDS011;9455;54.302;10.124;2023-07-22T13:27:28;1.00;;;0.93;;
18651;SDS011;9455;54.302;10.124;2023-07-22T13:29:54;1.00;;;1.00;;
18651;SDS011;9455;54.302;10.124;2023-07-22T13:32:21;1.83;;;1.33;;
18651;SDS011;9455;54.302;10.124;2023-07-22T13:34:47;1.90;;;0.90;;
18651;SDS011;9455;54.302;10.124;2023-07-22T13:37:15;1.17;;;0.80;;
18651;SDS011;9455;54.302;10.124;2023-07-22T13:39:42;7.77;;;1.27;;
18651;SDS011;9455;54.302;10.124;2023-07-22T13:42:08;0.83;;;0.83;;
18651;SDS011;9455;54.302;10.124;2023-07-22T13:44:35;1.37;;;0.97;;
18651;SDS011;9455;54.302;10.124;2023-07-22T13:47:01;1.03;;;0.97;;
18651;SDS011;9455;54.302;10.124;2023-07-22T13:49:28;1.97;;;1.20;;
18651;SDS011;9455;54.302;10.124;2023-07-22T13:51:55;0.87;;;0.87;;
18651;SDS011;9455;54.302;10.124;2023-07-22T13:54:23;1.10;;;1.00;;
18651;SDS011;9455;54.302;10.124;2023-07-22T13:56:49;1.43;;;1.00;;
18651;SDS011;9455;54.302;10.124;2023-07-22T13:59:16;1.07;;;1.07;;
18651;SDS011;9455;54.302;10.124;2023-07-22T14:01:42;1.10;;;1.00;;
18651;SDS011;9455;54.302;10.124;2023-07-22T14:04:09;2.30;;;1.50;;
18651;SDS011;9455;54.302;10.124;2023-07-22T14:06:36;2.77;;;1.93;;
18651;SDS011;9455;54.302;10.124;2023-07-22T14:09:02;2.10;;;1.73;;
18651;SDS011;9455;54.302;10.124;2023-07-22T14:11:30;5.73;;;2.30;;
18651;SDS011;9455;54.302;10.124;2023-07-22T14:13:57;4.87;;;1.90;;
18651;SDS011;9455;54.302;10.124;2023-07-22T14:16:23;7.23;;;3.17;;
18651;SDS011;9455;54.302;10.124;2023-07-22T14:18:50;9.57;;;2.47;;
18651;SDS011;9455;54.302;10.124;2023-07-22T14:21:17;3.57;;;2.03;;
18651;SDS011;9455;54.302;10.124;2023-07-22T14:23:44;4.97;;;2.63;;
18651;SDS011;9455;54.302;10.124;2023-07-22T14:26:11;3.63;;;2.30;;
18651;SDS011;9455;54.302;10.124;2023-07-22T14:28:39;4.67;;;2.50;;
18651;SDS011;9455;54.302;10.124;2023-07-22T14:31:05;6.53;;;2.33;;
18651;SDS011;9455;54.302;10.124;2023-07-22T14:33:32;4.43;;;2.73;;
18651;SDS011;9455;54.302;10.124;2023-07-22T14:35:59;4.03;;;3.03;;
18651;SDS011;9455;54.302;10.124;2023-07-22T14:38:25;12.70;;;2.93;;
18651;SDS011;9455;54.302;10.124;2023-07-22T14:40:53;4.87;;;2.77;;
18651;SDS011;9455;54.302;10.124;2023-07-22T14:43:19;5.90;;;2.47;;
18651;SDS011;9455;54.302;10.124;2023-07-22T14:45:47;7.47;;;2.90;;
18651;SDS011;9455;54.302;10.124;2023-07-22T14:48:14;3.10;;;2.17;;
18651;SDS011;9455;54.302;10.124;2023-07-22T14:50:40;6.33;;;3.00;;
18651;SDS011;9455;54.302;10.124;2023-07-22T14:53:07;4.93;;;2.80;;
18651;SDS011;9455;54.302;10.124;2023-07-22T14:55:33;6.20;;;3.23;;